Terminal Aerodrome Forecast
Issued by NWS

Home | Current Version | Previous Version | Text Only | Print | Product List | Glossary On
Versions: 1 2 3 4 5 6 7 8 9 10 11 12 13 14 15 16
788
FTUS45 KMSO 211727
TAFSMN
TAF
KSMN 211727Z 2118/2218 VRB04KT P6SM BKN120
     FM212300 21007KT P6SM VCSH BKN050
     FM220200 20008KT P6SM -RA OVC050
     FM221000 20008G20KT P6SM VCSH BKN050 OVC070
      AMD LTD TO CLD VIS AND WIND=

USA.gov is the U.S. government's official web portal to all federal, state and local government web resources and services.